United States > Florida

West Palm Beach, FL (33401)

11:07 AM EDT on July 07, 2015 (GMT -0400)
PCC Golf - Zaretsky Law Group - West Palm Beach | | Change Station
CLOSE
Current Station
Personal Weather Station
Location: West Palm Beach, FL
Elevation: 60 ft
Nearby Weather Stations

Elev 60 ft 26.73 °N, 80.08 °W | Updated 1 minute ago

Overcast
Overcast
82.1 °F
Feels Like 86 °F
N
10.0
Wind Variable Wind from East
Gusts 10.0 mph

Today
High -- | Low -- °F
--% Chance of Precip.
Yesterday
High -- | Low -- °F
Precip. -- in
6:32 AM 8:17 PM
Waning Gibbous, 64% visible
Pressure 30.19 in
Visibility 10.0 miles
Clouds Mostly Cloudy 2200 ft
Mostly Cloudy 3200 ft
Mostly Cloudy 18000 ft
Heat Index 86 °F
Dew Point 71 °F
Humidity 69%
Rainfall 0.00 in
Snow Depth Not available.
UV 6 out of 12
Pollen 4.20 out of 12
Air Quality Not available.
Flu Activity Not available.
METAR KPBI 071453Z 11009KT 10SM TS BKN022CB BKN032 BKN180 29/23 A3019 RMK AO2 TSB51 SLP222 OCNL LTGICCG OHD-NE-SE TS OHD-NE-SE MOV NW T02940233 51008

More Conditions Fewer Conditions

Pressure 30.19 in
Visibility 10.0 miles
Clouds Mostly Cloudy 2200 ft
Mostly Cloudy 3200 ft
Mostly Cloudy 18000 ft
Heat Index 86 °F
Dew Point 71 °F
Humidity 69%
Rainfall 0.00 in
Snow Depth Not available.
UV 6 out of 12
Pollen 4.20 out of 12
Air Quality Not available.
Flu Activity Not available.
METAR KPBI 071453Z 11009KT 10SM TS BKN022CB BKN032 BKN180 29/23 A3019 RMK AO2 TSB51 SLP222 OCNL LTGICCG OHD-NE-SE TS OHD-NE-SE MOV NW T02940233 51008

More Conditions Fewer Conditions

Nowcast | as of 10:32 am EDT on July 7, 2015

Scattered showers and thunderstorms will continue to develop across the eastern half of South Florida as well as the Atlantic waters through the late morning hours. Any storm that does develop could contain frequent lightning, heavy downpours, small hail and gusty winds. These storms are expected to continue into the afternoon hours.

×

10-Day Weather Forecast

×

Almanac

Astronomy

Jul. 07, 2015 Rise Set
Actual Time
Civil Twilight
Nautical Twilight
Astronomical Twilight
Moon
Length of Visible Light
Length of Day
Tomorrow will be .
, % of the Moon is Illuminated

Today's Extremes

State Highs State Lows

Community

WunderPhotos

Upload Photos

1,835,814 photos uploaded!

WunderBlogs® & News

Nearby

Air Quality

  Air Quality AQ Index Pollutant
Not available.

Snow Depth

Station Depth Elevation

Earthquake Activity

City Distance Mag. Time & Date
Minimum magnitude displayed is 2.5.

Coastal Water Temperatures

Place Temperature

Stations

Nearby Weather Stations

Station Location Temp. Windchill Dew Point Humidity Wind Precip. Elev Updated Type